Sault Ste Marie Airport
CYAM : now visible

Airfield :











YOU CAN JOIN US ON...

 
LOGIN :

Register | Disclaimer

   EN    FR    IT 

 









Legend :    VFR   Marginal VFR   IFR   Intensive IFR   Very Intensive IFR
Visi :
Ceiling :
>= 8 km
>= 3000ft
5 to 8 km
1000 to 3000 ft
1500m to 5 km
500 to 1000 ft
800 to 1500m
200 to 500 ft
< 800m
< 200 ft
Symbols :   Thunderstorms  Fog  Heavy snow  Heavy precipitations  Wind > 20 kt







- Airport Elevation : 630 ft
- IATA code : YAM


CYAM - Sault Ste Marie

CURRENT METAR :
  • 181948Z 14005KT 100V190 10SM FEW012 BKN014 BKN015 BKN019 25/22 A2972 RMK CF1CU5CU2SC1 CF TR SC TR SLP066 DENSITY ALT 2200FT

EXPIRED METARs :
  • 181916Z 13005KT 100V180 10SM FEW017 BKN096 BKN140 BKN230 25/22 A2973 RMK CU1ACC4AC1CC1 SLP068 DENSITY ALT 2100FT
  • 181900Z 14006KT 110V190 10SM -SHRA FEW017 SCT071 BKN120 BKN230 24/22 A2974 RMK SC1ACC3AS3CI1 SC TR SLP072 DENSITY ALT 2100FT
  • 181851Z 16005KT 10SM -SHRA FEW017 SCT071 BKN120 BKN230 24/21 A2975 RMK SC1ACC3AS3CI1 SC TR PRESFR SLP076 DENSITY ALT 2000FT
  • 181800Z 15003KT 110V190 10SM -SHRA FEW014 FEW071 OVC095 24/21 A2977 RMK CF1ACC1ACC8 CF TR ACC TR SLP082 DENSITY ALT 2000FT
  • 181756Z 17004KT 10SM -SHRA FEW014 OVC096 24/20 A2977 RMK CF1ACC8 CF TR SLP083 DENSITY ALT 2000FT
  • 181740Z CCA 18005KT 120V200 10SM -TSRA BKN070CB OVC220 24/21 A2978 RMK CB7CI1 OCNL LTNG N-NE SLP085 DENSITY ALT 2000FT
  • 181700Z 18004KT 100V220 15SM BKN022 BKN060 BKN180 24/21 A2978 RMK CU6SC1AS1 SC TR SLP087 DENSITY ALT 2000FT

TAF AMD TAF CYAM
Valid from the 18 at 17:00 until the 19 at 02:00 UTC


181756Z 1817/1902 20008KT P6SM SCT020 BKN060
TEMPO 1817/1819 4SM TSRA BR BKN050 OVC070CB
FM181900 20008KT P6SM FEW030 BKN050
TEMPO 1819/1824 6SM -SHRA BKN020 OVC050
PROB40 1819/1823 VRB15G25KT 11/2SM +TSGRRA BR BKN020 OVC060CB
FM190000 27008KT P6SM BKN009 BKN020 RMK NXT FCST BY 182000Z
CZYZ FIR / North America



MET'MAP, your aeronautical weather chart ! - Copyright ORBIFLY December 2007 - Disclaimer

ORBIFLY MET'MAP TEAM :

Programming & Development : Alexandra Zaïnal
Concept & Development : Baudouin d'Aumeries
Co-Development & Prog : Marc-Olivier Méhu
Technical & hardware support : Manuel Goepfert

Contact : metmap@orbifly.com




SOURCES & CREDITS :

   NOAA       Earth
Advisory